Aviation Digital Data Service (ADDS)

Output produced by METARs form (0236 UTC 22 July 2017)
found at http://www.aviationweather.gov/adds/metars/
 
LTAF 220220Z VRB02KT 9999 SCT035 25/24 Q1006 NOSIG RMK RWY23 16003KT 120V200
TAF LTAF 212240Z 2200/2224 VRB02KT 9999 SCT035 
     BECMG 2209/2211 21012KT 
     BECMG 2218/2220 VRB02KT
       
TAF LTCP 220140Z 2203/2212 VRB02KT CAVOK
       
LTBJ 220220Z 36017KT CAVOK 25/17 Q1008 NOSIG RMK RWY16 34014KT
TAF LTBJ 212240Z 2200/2224 36012KT CAVOK
       
TAF LTAH 220140Z 2203/2212 VRB02KT CAVOK
       
TAF LTCO 220140Z 2203/2212 VRB02KT CAVOK
       
TAF LTBT 220140Z 2203/2212 VRB02KT CAVOK 
     BECMG 2210/2212 31012KT
       
TAF LTAE 220140Z 2203/2212 VRB02KT CAVOK 
     BECMG 2206/2209 SCT040
       
LTBY 220150Z 26008KT 230V290 CAVOK 18/15 Q1014
TAF LTBY 220140Z 2203/2212 VRB02KT CAVOK
       
LTAI 220220Z 00000KT CAVOK 26/20 Q1005 NOSIG RMK RWY18C VRB02KT RWY36R 00000KT RWY18L 33002KT
TAF LTAI 212240Z 2200/2224 VRB02KT CAVOK 
     BECMG 2206/2208 17012KT FEW030 
     BECMG 2216/2218 VRB02KT CAVOK
       
LTBA 220220Z 04008KT CAVOK 23/20 Q1014 NOSIG RMK RWY17L 04007KT 010V070 RWY05 03008KT RWY23 05009KT
TAF LTBA 212240Z 2200/2306 04012KT CAVOK 
     BECMG 2216/2220 VRB02KT
       
LTBF 220150Z 36006KT CAVOK 20/17 Q1013 NOSIG
TAF LTBF 220140Z 2203/2212 01008KT CAVOK
       
TAF LTBG 220140Z 2203/2212 03010KT 9999 FEW015 SCT030 
     BECMG 2207/2210 CAVOK
       
LTCJ 220220Z 01003KT CAVOK 19/11 Q1007 RMK RWY20 04004KT
TAF LTCJ 212240Z 2200/2224 VRB02KT CAVOK
       
LTBH 220150Z 03009KT 9999 SCT035 21/18 Q1013
TAF LTBH 220140Z 2203/2212 03010KT 9999 FEW015 SCT030 
     BECMG 2207/2210 CAVOK
       
LTAY 220150Z 23002KT CAVOK 17/14 Q1013
TAF LTAY 220140Z 2203/2212 VRB02KT CAVOK 
     BECMG 2206/2209 SCT030
       
LTFH 220150Z 00000KT 9999 FEW035 19/17 Q1012 NOSIG
TAF LTFH 220140Z 2203/2212 VRB02KT 9999 FEW035
       
TAF LTBL 220140Z 2203/2212 VRB02KT CAVOK 
     BECMG 2210/2212 31012KT
       
LTBU 220220Z 36006KT CAVOK 19/18 Q1014 RMK RWY23 01006KT
TAF LTBU 212240Z 2200/2224 02012KT CAVOK 
     BECMG 2215/2218 VRB02KT
       
LTBS 220220Z VRB02KT CAVOK 24/20 Q1006 NOSIG RMK RWY19 14004KT
TAF LTBS 212240Z 2200/2224 VRB02KT CAVOK 
     BECMG 2206/2208 22012KT SCT030 
     BECMG 2216/2218 01006KT 
     BECMG 2222/2224 CAVOK
       
LTCC 220220Z 32003KT 290V360 CAVOK 23/06 Q1007 NOSIG RMK RWY16 26001KT
TAF LTCC 212240Z 2200/2224 VRB02KT CAVOK 
     BECMG 2209/2211 24012KT
       
LTFD 212050Z 07013KT CAVOK 25/15 Q1012
TAF LTFD 220140Z 2203/2212 08012KT CAVOK
       
LTCA 220150Z 27004KT 240V310 CAVOK 23/09 Q1010 NOSIG
TAF LTCA 220140Z 2203/2212 26008KT CAVOK 
     BECMG 2209/2211 FEW035
       
LTAT 220220Z VRB02KT CAVOK 22/08 Q1010 NOSIG RMK RWY03 23004KT 170V300
TAF LTAT 212240Z 2200/2224 VRB02KT CAVOK 
     BECMG 2209/2210 FEW040 
     PROB30 
     TEMPO 2212/2216 21015KT 
     BECMG 2216/2217 CAVOK
       
LTAU 220220Z 06003KT CAVOK 14/08 Q1015 NOSIG RMK RWY07 07004KT 040V100
TAF LTAU 212240Z 2200/2224 VRB02KT CAVOK 
     BECMG 2208/2211 SCT040 
     BECMG 2212/2214 35012KT 
     BECMG 2217/2220 VRB02KT CAVOK
       
LTCD 220150Z 30002KT CAVOK 18/11 Q1014 NOSIG
TAF LTCD 220140Z 2203/2212 VRB02KT CAVOK
       
LTCE 220220Z 17003KT 130V210 CAVOK 12/05 Q1019 NOSIG RMK RWY08R 14003KT 040V180 RWY26R 18003KT 150V220 RWY08L VRB02KT
TAF LTCE 212240Z 2200/2224 VRB02KT CAVOK 
     BECMG 2207/2209 24015KT 
     BECMG 2216/2218 VRB02KT
       
LTAC 220220Z 03009KT CAVOK 20/13 Q1014 NOSIG RMK RWY21L 02008KT RWY03L 02007KT RWY21R 02010KT
TAF LTAC 212240Z 2200/2224 02008KT CAVOK 
     BECMG 2201/2204 SCT040 
     TEMPO 2209/2213 -SHRA FEW025CB BKN030 
     BECMG 2218/2221 CAVOK
       
TAF LTBI 220140Z 2203/2212 VRB02KT CAVOK
       
TAF LTAD 220140Z 2203/2212 VRB02KT CAVOK 
     BECMG 2207/2209 SCT040 SCT100 
     BECMG 2209/2211 25012KT
       
TAF LTBK 220140Z 2203/2212 33012KT CAVOK
       
TAF LTAB 220140Z 2203/2212 VRB02KT CAVOK 
     BECMG 2206/2208 SCT040
       
LTAG 220220Z 10004KT 9999 SCT020 26/24 Q1006 NOSIG
TAF LTAG 212240Z 2200/2224 VRB02KT 9999 SCT020 
     BECMG 2204/2206 18012KT BKN035 
     BECMG 2207/2209 SCT035 
     BECMG 2215/2218 CAVOK
       
LTCN 220150Z 29010KT CAVOK 26/20 Q1007 NOSIG
TAF LTCN 220140Z 2203/2212 27008KT CAVOK
       
TAF LTFA 220140Z 2203/2212 VRB02KT CAVOK 
     BECMG 2210/2212 31012KT
       
LTAZ 220220Z VRB02KT CAVOK 17/08 Q1014 RMK RWY29 00000KT
TAF LTAZ 212240Z 2200/2224 VRB02KT CAVOK 
     BECMG 2207/2210 36012KT SCT040 
     BECMG 2219/2222 VRB02KT CAVOK
       
LTCF 220150Z VRB02KT CAVOK 13/06 Q1020
TAF LTCF 220140Z 2203/2212 04008KT CAVOK
       
TAF LTAL 220140Z 2203/2212 VRB02KT CAVOK
       
LTAN 220150Z 34007KT CAVOK 21/11 Q1014 NOSIG
TAF LTAN 220140Z 2203/2212 36008KT CAVOK 
     BECMG 2209/2212 SCT040
       
TAF LTBN 220140Z 2203/2212 VRB02KT CAVOK
       
LTCR 220150Z VRB02KT 9999 FEW040 27/06 Q1006
TAF LTCR 220140Z 2203/2212 VRB02KT CAVOK 
     BECMG 2207/2210 22012KT
       
LTAP 220220Z 00000KT CAVOK 14/11 Q1013 NOSIG RMK RWY23 VRB02KT
TAF LTAP 212240Z 2200/2224 VRB02KT CAVOK 
     BECMG 2206/2210 02015KT FEW040 
     BECMG 2217/2221 VRB02KT CAVOK
       
LTFE 220220Z 00000KT CAVOK 21/18 Q1007 NOSIG RMK RWY10 VRB01KT
TAF LTFE 212240Z 2200/2224 VRB02KT CAVOK 
     BECMG 2207/2210 28014KT SCT035 
     BECMG 2215/2218 VRB02KT CAVOK
       
LTCK 220150Z 29005KT CAVOK 14/06 Q1014
TAF LTCK 220140Z 2203/2212 VRB02KT CAVOK 
     BECMG 2209/2211 20012KT
       
LTAJ 220220Z VRB02KT CAVOK 23/14 Q1008 NOSIG RMK RWY10 00000KT
TAF LTAJ 212240Z 2200/2224 VRB02KT CAVOK 
     BECMG 2208/2211 24012KT 
     BECMG 2219/2221 VRB02KT
       
LTFJ 220220Z 04006KT 9999 SCT013 20/19 Q1014 NOSIG RMK RWY24 03003KT
TAF LTFJ 212240Z 2200/2224 03007KT 9999 SCT035 
     PROB30 
     TEMPO 2203/2205 4000 BR 
     BECMG 2206/2209 CAVOK 
     TEMPO 2210/2214 04017KT 
     BECMG 2221/2224 SCT020
       
TAF LTBX 220140Z 2203/2212 03006KT 9999 SCT013 
     TEMPO 2203/2206 4000 BR 
     BECMG 2206/2209 CAVOK 
     TEMPO 2209/2212 03016KT
       
TAF LTCL 220140Z 2203/2212 VRB02KT CAVOK 
     BECMG 2207/2210 22012KT
       
TAF LTCM 220140Z 2203/2212 30008KT 9999 FEW035
       
TAF LTAV 220140Z 2203/2212 VRB02KT CAVOK
       
LTFC 220220Z 31003KT 270V020 9999 FEW035 18/15 Q1013 RMK RWY23 VRB01KT
TAF LTFC 212240Z 2200/2224 VRB02KT 9999 SCT035 
     PROB40 
     TEMPO 2214/2218 25012KT -TSRA FEW020CB BKN030 
     BECMG 2218/2220 36012KT
       
TAF LTAW 220140Z 2203/2212 VRB02KT CAVOK 
     BECMG 2205/2208 FEW040
       
LTBQ 220150Z 00000KT 9999 BKN030 18/18 Q1014 NOSIG
TAF LTBQ 220140Z 2203/2212 VRB02KT 9999 BKN030 
     BECMG 2205/2207 FEW040 
     PROB30 
     TEMPO 2209/2212 04012KT
       
LTCG 220220Z 22005KT 160V240 9999 BKN035 23/19 Q1012 NOSIG RMK RWY29 23004KT
TAF LTCG 212240Z 2200/2224 VRB02KT 9999 BKN033 
     PROB30 2203/2207 24015G25KT -TSRA FEW018CB BKN028 
     TEMPO 2214/2218 27015G25KT -TSRA FEW018CB BKN028
       
LTCI 220150Z 00000KT CAVOK 14/03 Q1018 NOSIG
TAF LTCI 220140Z 2203/2212 VRB02KT CAVOK 
     BECMG 2205/2208 27012KT FEW040
       
TAF LTBP 220140Z 2203/2212 VRB02KT CAVOK 
     TEMPO 2203/2207 4000 BR SCT015 
     BECMG 2206/2209 03012KT
       
LTBR 220220Z VRB01KT CAVOK 16/15 Q1014 NOSIG RMK RWY07 00000KT
TAF LTBR 212240Z 2200/2224 VRB02KT CAVOK 
     BECMG 2209/2212 35012KT FEW035 
     BECMG 2217/2220 VRB02KT CAVOK